• Join FlightAware (Why Join?)
  • Login
  • US Flag 
05:12AM EDT


 

Airport Tracker/Info


-or-


 

Live Flight TrackerFlight Track Log ✈ FIN666 ✈ 18-Oct-2013 ✈ EKCH / CPH - EFHK / HEL

Flight Track Log - Related Links

Times and Time Zones

All times are in EDT time to prevent confusion due to time zone crossing. See the FIN666 flight status page for this flight to view local times or setup timezone preferences in your user account.

Time Position Orientation Groundspeed Altitude Reporting Facility
EDT Latitude Longitude Course Direction KTS MPH feet Rate Location/Type
07:27AM 55.8592 13.1550 49° Northeast  Level Estimated
07:28AM 55.9392 13.3227 50° Northeast  Level Estimated
07:29AM 56.0189 13.4911 50° Northeast  Level Estimated
07:30AM 56.0985 13.6603 50° Northeast  Level Estimated
07:31AM 56.1743 13.8226 50° Northeast  Level Estimated
07:32AM 56.2498 13.9855 50° Northeast  Level Estimated
07:33AM 56.3252 14.1491 50° Northeast  Level Estimated
07:34AM 56.4003 14.3133 50° Northeast  Level Estimated
07:35AM 56.4753 14.4782 51° Northeast  Level Estimated
07:36AM 56.5500 14.6438 51° Northeast  Level Estimated
07:37AM 56.6245 14.8099 51° Northeast  Level Estimated
07:38AM 56.6987 14.9768 51° Northeast  Level Estimated
07:39AM 56.7728 15.1443 51° Northeast  Level Estimated
07:40AM 56.8466 15.3125 51° Northeast  Level Estimated
07:41AM 56.9202 15.4813 51° Northeast  Level Estimated
07:42AM 56.9936 15.6508 51° Northeast  Level Estimated
07:43AM 57.0667 15.8210 52° Northeast  Level Estimated
07:44AM 57.1396 15.9918 52° Northeast  Level Estimated
07:45AM 57.2123 16.1633 52° Northeast  Level Estimated
07:46AM 57.2847 16.3355 52° Northeast  Level Estimated
07:47AM 57.3569 16.5083 52° Northeast  Level Estimated
07:48AM 57.4289 16.6819 52° Northeast  Level Estimated
07:49AM 57.5006 16.8561 52° Northeast  Level Estimated
07:50AM 57.5721 17.0310 53° Northeast  Level Estimated
07:51AM 57.6433 17.2066 53° Northeast  Level Estimated
07:52AM 57.7143 17.3829 53° Northeast  Level Estimated
07:53AM 57.7851 17.5599 53° Northeast  Level Estimated
07:54AM 57.8556 17.7376 53° Northeast  Level Estimated
07:55AM 57.9258 17.9159 53° Northeast  Level Estimated
07:56AM 57.9958 18.0950 54° Northeast  Level Estimated
07:57AM 58.0656 18.2747 54° Northeast  Level Estimated
07:58AM 58.1351 18.4552 54° Northeast  Level Estimated
07:59AM 58.2043 18.6364 54° Northeast  Level Estimated
08:00AM 58.2733 18.8183 54° Northeast  Level Estimated
08:01AM 58.3420 19.0009 54° Northeast  Level Estimated
08:02AM 58.4105 19.1842 54° Northeast  Level Estimated
08:03AM 58.4787 19.3682 55° Northeast  Level Estimated
08:04AM 58.5466 19.5529 55° Northeast  Level Estimated
08:05AM 58.6143 19.7383 55° Northeast  Level Estimated
08:06AM 58.6817 19.9245 55° Northeast  Level Estimated
08:07AM 58.7488 20.1114 55° Northeast  Level Estimated
08:08AM 58.8157 20.2990 55° Northeast  Level Estimated
08:09AM 58.8823 20.4873 56° Northeast  Level Estimated
08:10AM 58.9486 20.6763 56° Northeast  Level Estimated
08:11AM 59.0146 20.8661 56° Northeast  Level Estimated
08:12AM 59.0803 21.0566 56° Northeast  Level Estimated
08:13AM 59.1440 21.2424 56° Northeast  Level Estimated
08:14AM 59.2073 21.4288 56° Northeast  Level Estimated
08:15AM 59.2704 21.6160 57° Northeast  Level Estimated
08:16AM 59.3332 21.8038 57° Northeast  Level Estimated
08:17AM 59.3957 21.9923 57° Northeast  Level Estimated
08:18AM 59.4580 22.1815 57° Northeast  Level Estimated
08:19AM 59.5200 22.3715 57° Northeast  Level Estimated
08:20AM 59.5817 22.5621 57° Northeast  Level Estimated
08:21AM 59.6431 22.7534 58° Northeast  Level Estimated
08:22AM 59.7043 22.9454 58° Northeast  Level Estimated
08:23AM 59.7651 23.1381 58° Northeast  Level Estimated
08:24AM 59.8257 23.3316 58° Northeast  Level Estimated
08:25AM 59.8860 23.5257 58° Northeast  Level Estimated
08:26AM 59.9460 23.7205 58° Northeast  Level Estimated
08:27AM 60.0058 23.9160 59° Northeast  Level Estimated
08:28AM 60.0652 24.1123 59° Northeast  Level Estimated
08:29AM 60.1244 24.3092 59° Northeast  Level Estimated
08:30AM 60.1832 24.5069 59° Northeast  Level Estimated
08:31AM 60.2418 24.7052 59° Northeast  Level Estimated
08:32AM 60.3000 24.9043 59° Northeast  Level Estimated
08:33AM 60.3172 24.9633 60° Northeast  Level Estimated
08:34AM 60.3172 24.9633 37° Northeast  Level Estimated
08:35AM 60.3172 24.9633 37° Northeast  Level Estimated
08:36AM 60.3172 24.9633 37° Northeast  Level Estimated
08:37AM 60.3172 24.9633 37° Northeast  Level Estimated
08:38AM 60.3172 24.9633 37° Northeast  Level Estimated
08:39AM 60.3172 24.9633 37° Northeast  Level Estimated
08:40AM 60.3172 24.9633 37° Northeast  Level Estimated
08:41AM 60.3172 24.9633 37° Northeast  Level Estimated
08:42AM 60.3172 24.9633 37° Northeast  Level Estimated
08:43AM 60.3172 24.9633 37° Northeast  Level Estimated
08:44AM 60.3172 24.9633 37° Northeast  Level Estimated
08:45AM 60.3172 24.9633 37° Northeast  Level Estimated
08:46AM 60.3172 24.9633 37° Northeast  Level Estimated
08:47AM 60.3172 24.9633 37° Northeast  Level Estimated
08:48AM 60.3172 24.9633 37° Northeast  Level Estimated